createdAt,value
2018-02-27T00:00:30.319Z,0
2018-02-27T00:01:10.870Z,0
2018-02-27T00:01:51.422Z,0
2018-02-27T00:02:31.973Z,0
2018-02-27T00:03:12.522Z,0
2018-02-27T00:03:53.071Z,0
2018-02-27T00:04:33.628Z,0
2018-02-27T00:05:14.200Z,0
2018-02-27T00:05:54.758Z,0
2018-02-27T00:06:35.306Z,0
2018-02-27T00:07:15.860Z,0
2018-02-27T00:07:56.421Z,0
2018-02-27T00:08:36.966Z,0
2018-02-27T00:09:17.523Z,0
2018-02-27T00:09:58.064Z,0
2018-02-27T00:10:38.600Z,0
2018-02-27T00:11:19.164Z,0
2018-02-27T00:11:59.727Z,0
2018-02-27T00:12:40.300Z,0
2018-02-27T00:13:20.859Z,0
2018-02-27T00:14:01.400Z,0
2018-02-27T00:14:41.959Z,0
2018-02-27T00:15:22.522Z,0
2018-02-27T00:16:03.087Z,0
2018-02-27T00:16:43.649Z,0
2018-02-27T00:17:24.223Z,0
2018-02-27T00:18:04.788Z,0
2018-02-27T00:18:45.342Z,0
2018-02-27T00:19:25.879Z,0
2018-02-27T00:20:06.424Z,0
2018-02-27T00:20:46.970Z,0
2018-02-27T00:21:27.515Z,0
2018-02-27T00:22:08.064Z,0
2018-02-27T00:22:48.616Z,0
2018-02-27T00:23:29.153Z,0
2018-02-27T00:24:09.689Z,0
2018-02-27T00:24:50.241Z,0
2018-02-27T00:25:30.779Z,0
2018-02-27T00:26:11.330Z,0
2018-02-27T00:26:51.854Z,0
2018-02-27T00:27:32.406Z,0
2018-02-27T00:28:12.956Z,0
2018-02-27T00:28:53.535Z,0
2018-02-27T00:29:34.032Z,0
2018-02-27T00:30:14.571Z,0
2018-02-27T00:30:55.131Z,0
2018-02-27T00:31:35.677Z,0
2018-02-27T00:32:16.227Z,0
2018-02-27T00:32:56.779Z,0
2018-02-27T00:33:37.334Z,0
2018-02-27T00:34:17.882Z,0
2018-02-27T00:34:58.430Z,0
2018-02-27T00:35:38.980Z,0
2018-02-27T00:36:19.532Z,0
2018-02-27T00:37:00.095Z,0
2018-02-27T00:37:40.661Z,0
2018-02-27T00:38:21.219Z,0
2018-02-27T00:39:01.751Z,0
2018-02-27T00:39:42.299Z,0
2018-02-27T00:40:22.851Z,0
2018-02-27T00:41:03.408Z,0
2018-02-27T00:41:43.946Z,0
2018-02-27T00:42:24.497Z,0
2018-02-27T00:43:05.077Z,0
2018-02-27T00:43:45.630Z,0
2018-02-27T00:44:26.191Z,0
2018-02-27T00:45:06.741Z,0
2018-02-27T00:45:47.296Z,0
2018-02-27T00:46:27.830Z,0
2018-02-27T00:47:08.385Z,0
2018-02-27T00:47:48.934Z,0
2018-02-27T00:48:29.494Z,0
2018-02-27T00:49:10.038Z,0
2018-02-27T00:49:50.674Z,0
2018-02-27T00:50:31.206Z,0
2018-02-27T00:51:11.736Z,0
2018-02-27T00:51:52.292Z,0
2018-02-27T00:52:32.840Z,0
2018-02-27T00:53:13.390Z,0
2018-02-27T00:53:53.935Z,0
2018-02-27T00:54:34.486Z,0
2018-02-27T00:55:15.064Z,0
2018-02-27T00:55:55.619Z,0
2018-02-27T00:56:36.170Z,0
2018-02-27T00:57:16.724Z,0
2018-02-27T00:57:57.282Z,0
2018-02-27T00:58:37.836Z,0
2018-02-27T00:59:18.387Z,0
2018-02-27T00:59:58.988Z,0
2018-02-27T01:00:39.550Z,0
2018-02-27T01:01:20.100Z,0
2018-02-27T01:02:00.654Z,0
2018-02-27T01:02:41.209Z,0
2018-02-27T01:03:21.752Z,0
2018-02-27T01:04:02.319Z,0
2018-02-27T01:04:42.883Z,0
2018-02-27T01:05:23.432Z,0
2018-02-27T01:06:03.992Z,0
2018-02-27T01:06:44.552Z,0
2018-02-27T01:07:25.096Z,0
2018-02-27T01:08:05.643Z,0
2018-02-27T01:08:46.251Z,0
2018-02-27T01:09:26.820Z,0
2018-02-27T01:10:07.362Z,0
2018-02-27T01:10:47.911Z,0
2018-02-27T01:11:28.462Z,0
2018-02-27T01:12:08.991Z,0
2018-02-27T01:12:49.564Z,0
2018-02-27T01:13:30.103Z,0
2018-02-27T01:14:10.647Z,0
2018-02-27T01:14:51.199Z,0
2018-02-27T01:15:31.732Z,0
2018-02-27T01:16:12.280Z,0
2018-02-27T01:16:52.830Z,0
2018-02-27T01:17:33.381Z,0
2018-02-27T01:18:13.934Z,0
2018-02-27T01:18:54.482Z,0
2018-02-27T01:19:35.030Z,0
2018-02-27T01:20:15.581Z,0
2018-02-27T01:20:56.140Z,0
2018-02-27T01:21:36.678Z,0
2018-02-27T01:22:17.243Z,0
2018-02-27T01:22:57.782Z,0
2018-02-27T01:23:38.342Z,0
2018-02-27T01:24:18.906Z,0
2018-02-27T01:24:59.493Z,0
2018-02-27T01:25:40.012Z,0
2018-02-27T01:26:20.580Z,0
2018-02-27T01:27:01.108Z,0
2018-02-27T01:27:41.648Z,0
2018-02-27T01:28:22.198Z,0
2018-02-27T01:29:02.748Z,0
2018-02-27T01:29:43.292Z,0
2018-02-27T01:30:23.845Z,0
2018-02-27T01:31:04.395Z,0
2018-02-27T01:31:44.944Z,0
2018-02-27T01:32:25.513Z,0
2018-02-27T01:33:06.058Z,0
2018-02-27T01:33:46.608Z,0
2018-02-27T01:34:27.152Z,0
2018-02-27T01:35:07.716Z,0
2018-02-27T01:35:48.258Z,0
2018-02-27T01:36:28.807Z,0
2018-02-27T01:37:09.364Z,0
2018-02-27T01:37:49.901Z,0
2018-02-27T01:38:30.463Z,0
2018-02-27T01:39:11.032Z,0
2018-02-27T01:39:51.565Z,0
2018-02-27T01:40:32.112Z,0
2018-02-27T01:41:12.660Z,0
2018-02-27T01:41:53.210Z,0
2018-02-27T01:42:33.761Z,0
2018-02-27T01:43:14.305Z,0
2018-02-27T01:43:54.880Z,0
2018-02-27T01:44:35.442Z,0
2018-02-27T01:45:15.997Z,0
2018-02-27T01:45:56.531Z,0
2018-02-27T01:46:37.084Z,0
2018-02-27T01:47:17.639Z,0
2018-02-27T01:47:58.178Z,0
2018-02-27T01:48:38.723Z,0
2018-02-27T01:49:19.282Z,0
2018-02-27T01:49:59.837Z,0
2018-02-27T01:50:40.424Z,0
2018-02-27T01:51:20.951Z,0
2018-02-27T01:52:01.503Z,0
2018-02-27T01:52:42.047Z,0
2018-02-27T01:53:22.599Z,0
2018-02-27T01:54:03.139Z,0
2018-02-27T01:54:43.699Z,0
2018-02-27T01:55:24.253Z,0
2018-02-27T01:56:04.796Z,0
2018-02-27T01:56:45.353Z,0
2018-02-27T01:57:25.898Z,0
2018-02-27T01:58:06.461Z,0
2018-02-27T01:58:47.000Z,0
2018-02-27T01:59:27.546Z,0
2018-02-27T02:00:08.100Z,0
2018-02-27T02:00:48.655Z,0
2018-02-27T02:01:29.210Z,0
2018-02-27T02:02:09.788Z,0
2018-02-27T02:02:50.310Z,0
2018-02-27T02:03:30.869Z,0
2018-02-27T02:04:11.411Z,0
2018-02-27T02:04:51.959Z,0
2018-02-27T02:05:32.524Z,0
2018-02-27T02:06:13.064Z,0
2018-02-27T02:06:53.618Z,0
2018-02-27T02:07:34.166Z,0
2018-02-27T02:08:14.728Z,0
2018-02-27T02:08:55.269Z,0
2018-02-27T02:09:35.819Z,0
2018-02-27T02:10:16.370Z,0
2018-02-27T02:10:56.927Z,0
2018-02-27T02:11:37.492Z,0
2018-02-27T02:12:18.071Z,0
2018-02-27T02:12:58.607Z,0
2018-02-27T02:13:39.160Z,0
2018-02-27T02:14:19.688Z,0
2018-02-27T02:15:00.268Z,0
2018-02-27T02:15:40.787Z,0
2018-02-27T02:16:21.338Z,0
2018-02-27T02:17:01.880Z,0
2018-02-27T02:17:42.446Z,0
2018-02-27T02:18:22.981Z,0
2018-02-27T02:19:03.531Z,0
2018-02-27T02:19:44.086Z,0
2018-02-27T02:20:24.640Z,0
2018-02-27T02:21:05.190Z,0
2018-02-27T02:21:45.741Z,0
2018-02-27T02:22:26.286Z,0
2018-02-27T02:23:06.842Z,0
2018-02-27T02:23:47.392Z,0
2018-02-27T02:24:27.961Z,0
2018-02-27T02:25:08.517Z,0
2018-02-27T02:25:49.061Z,0
2018-02-27T02:26:29.592Z,0
2018-02-27T02:27:10.144Z,0
2018-02-27T02:27:50.703Z,0
2018-02-27T02:28:31.250Z,0
2018-02-27T02:29:11.802Z,0
2018-02-27T02:29:52.350Z,0
2018-02-27T02:30:32.897Z,0
2018-02-27T02:31:13.460Z,0
2018-02-27T02:31:53.999Z,0
2018-02-27T02:32:34.557Z,0
2018-02-27T02:33:15.109Z,0
2018-02-27T02:33:55.654Z,0
2018-02-27T02:34:36.228Z,0
2018-02-27T02:35:16.780Z,0
2018-02-27T02:35:57.318Z,0
2018-02-27T02:36:37.870Z,0
2018-02-27T02:37:18.407Z,0
2018-02-27T02:37:58.958Z,0
2018-02-27T02:38:39.513Z,0
2018-02-27T02:39:20.058Z,0
2018-02-27T02:40:00.611Z,0
2018-02-27T02:40:41.162Z,0
2018-02-27T02:41:21.706Z,0
2018-02-27T02:42:02.269Z,0
2018-02-27T02:42:42.814Z,0
2018-02-27T02:43:23.371Z,0
2018-02-27T02:44:03.917Z,0
2018-02-27T02:44:44.468Z,0
2018-02-27T02:45:25.024Z,0
2018-02-27T02:46:05.568Z,0
2018-02-27T02:46:46.118Z,0
2018-02-27T02:47:26.661Z,0
2018-02-27T02:48:07.231Z,0
2018-02-27T02:48:47.772Z,0
2018-02-27T02:49:28.404Z,0
2018-02-27T02:50:08.952Z,0
2018-02-27T02:50:49.505Z,0
2018-02-27T02:51:30.056Z,0
2018-02-27T02:52:10.598Z,0
2018-02-27T02:52:51.153Z,0
2018-02-27T02:53:31.686Z,0
2018-02-27T02:54:12.235Z,0
2018-02-27T02:54:52.800Z,0
2018-02-27T02:55:33.369Z,0
2018-02-27T02:56:13.924Z,0
2018-02-27T02:56:54.487Z,0
2018-02-27T02:57:35.035Z,0
2018-02-27T02:58:15.581Z,0
2018-02-27T02:58:56.141Z,0
2018-02-27T02:59:36.689Z,0
2018-02-27T03:00:17.254Z,0
2018-02-27T03:00:57.809Z,0
2018-02-27T03:01:38.368Z,0
2018-02-27T03:02:18.921Z,0
2018-02-27T03:02:59.463Z,0
2018-02-27T03:03:40.022Z,0
2018-02-27T03:04:20.581Z,0
2018-02-27T03:05:01.152Z,0
2018-02-27T03:05:41.717Z,0
2018-02-27T03:06:22.256Z,0
2018-02-27T03:07:02.810Z,0
2018-02-27T03:07:43.365Z,0
2018-02-27T03:08:23.920Z,0
2018-02-27T03:09:04.466Z,0
2018-02-27T03:09:45.024Z,0
2018-02-27T03:10:25.551Z,0
2018-02-27T03:11:06.120Z,0
2018-02-27T03:11:46.668Z,0
2018-02-27T03:12:27.227Z,0
2018-02-27T03:13:07.764Z,0
2018-02-27T03:13:48.326Z,0
2018-02-27T03:14:28.868Z,0
2018-02-27T03:15:09.411Z,0
2018-02-27T03:15:49.941Z,0
2018-02-27T03:16:30.491Z,0
2018-02-27T03:17:11.055Z,0
2018-02-27T03:17:51.600Z,0
2018-02-27T03:18:32.150Z,0
2018-02-27T03:19:12.703Z,0
2018-02-27T03:19:53.245Z,0
2018-02-27T03:20:33.803Z,0
2018-02-27T03:21:14.350Z,0
2018-02-27T03:21:54.922Z,0
2018-02-27T03:22:35.485Z,0
2018-02-27T03:23:16.037Z,0
2018-02-27T03:23:56.589Z,0
2018-02-27T03:24:37.134Z,0
2018-02-27T03:25:17.697Z,0
2018-02-27T03:25:58.236Z,0
2018-02-27T03:26:38.804Z,0
2018-02-27T03:27:19.340Z,0
2018-02-27T03:27:59.896Z,0
2018-02-27T03:28:40.471Z,0
2018-02-27T03:29:21.025Z,0
2018-02-27T03:30:01.581Z,0
2018-02-27T03:30:42.125Z,0
2018-02-27T03:31:22.684Z,0
2018-02-27T03:32:03.234Z,0
2018-02-27T03:32:43.780Z,0
2018-02-27T03:33:24.344Z,0
2018-02-27T03:34:04.920Z,0
2018-02-27T03:34:45.493Z,0
2018-02-27T03:35:26.046Z,0
2018-02-27T03:36:06.584Z,0
2018-02-27T03:36:47.144Z,0
2018-02-27T03:37:27.692Z,0
2018-02-27T03:38:08.236Z,0
2018-02-27T03:38:48.791Z,0
2018-02-27T03:39:29.339Z,0
2018-02-27T03:40:09.898Z,0
2018-02-27T03:40:50.445Z,0
2018-02-27T03:41:30.998Z,0
2018-02-27T03:42:11.548Z,0
2018-02-27T03:42:52.093Z,0
2018-02-27T03:43:32.670Z,0
2018-02-27T03:44:13.222Z,0
2018-02-27T03:44:53.771Z,0
2018-02-27T03:45:34.348Z,0
2018-02-27T03:46:14.863Z,0
2018-02-27T03:46:55.409Z,0
2018-02-27T03:47:35.965Z,0
2018-02-27T03:48:16.518Z,0
2018-02-27T03:48:57.068Z,0
2018-02-27T03:49:37.621Z,0
2018-02-27T03:50:18.178Z,0
2018-02-27T03:50:58.718Z,0
2018-02-27T03:51:39.278Z,0
2018-02-27T03:52:19.843Z,0
2018-02-27T03:53:00.375Z,0
2018-02-27T03:53:40.931Z,0
2018-02-27T03:54:21.475Z,0
2018-02-27T03:55:02.034Z,0
2018-02-27T03:55:42.615Z,0
2018-02-27T03:56:23.135Z,0
2018-02-27T03:57:03.681Z,0
2018-02-27T03:57:44.250Z,0
2018-02-27T03:58:24.783Z,0
2018-02-27T03:59:05.336Z,0
2018-02-27T03:59:45.884Z,0
2018-02-27T04:00:26.443Z,0
2018-02-27T04:01:06.988Z,0
2018-02-27T04:01:47.540Z,0
2018-02-27T04:02:28.083Z,0
2018-02-27T04:03:08.632Z,0
2018-02-27T04:03:49.198Z,0
2018-02-27T04:04:29.754Z,0
2018-02-27T04:05:10.293Z,0
2018-02-27T04:05:50.852Z,0
2018-02-27T04:06:31.421Z,0
2018-02-27T04:07:11.957Z,0
2018-02-27T04:07:52.521Z,0
2018-02-27T04:08:33.076Z,0
2018-02-27T04:09:13.621Z,0
2018-02-27T04:09:54.166Z,0
2018-02-27T04:10:34.716Z,0
2018-02-27T04:11:15.272Z,0
2018-02-27T04:11:55.821Z,0
2018-02-27T04:12:36.385Z,0
2018-02-27T04:13:16.959Z,0
2018-02-27T04:13:57.455Z,0
2018-02-27T04:14:38.006Z,0
2018-02-27T04:15:18.560Z,0
2018-02-27T04:15:59.115Z,0
2018-02-27T04:16:39.721Z,0
2018-02-27T04:17:20.222Z,0
2018-02-27T04:18:00.776Z,0
2018-02-27T04:18:41.326Z,0
2018-02-27T04:19:21.879Z,0
2018-02-27T04:20:02.431Z,0
2018-02-27T04:20:42.980Z,0
2018-02-27T04:21:23.521Z,0
2018-02-27T04:22:04.083Z,0
2018-02-27T04:22:44.620Z,0
2018-02-27T04:23:25.172Z,0
2018-02-27T04:24:05.742Z,0
2018-02-27T04:24:46.275Z,0
2018-02-27T04:25:26.825Z,0
2018-02-27T04:26:07.377Z,0
2018-02-27T04:26:47.926Z,0
2018-02-27T04:27:28.495Z,0
2018-02-27T04:28:09.039Z,0
2018-02-27T04:28:49.591Z,0
2018-02-27T04:29:30.155Z,0
2018-02-27T04:30:10.674Z,0
2018-02-27T04:30:51.236Z,0
2018-02-27T04:31:31.788Z,0
2018-02-27T04:32:12.336Z,0
2018-02-27T04:32:52.885Z,0
2018-02-27T04:33:33.449Z,0
2018-02-27T04:34:13.991Z,0
2018-02-27T04:34:54.540Z,0
2018-02-27T04:35:35.089Z,0
2018-02-27T04:36:15.643Z,0
2018-02-27T04:36:56.236Z,0
2018-02-27T04:37:36.780Z,0
2018-02-27T04:38:17.325Z,0
2018-02-27T04:38:57.858Z,0
2018-02-27T04:39:38.398Z,0
2018-02-27T04:40:18.945Z,0
2018-02-27T04:40:59.497Z,0
2018-02-27T04:41:40.049Z,0
2018-02-27T04:42:20.594Z,0
2018-02-27T04:43:01.141Z,0
2018-02-27T04:43:41.695Z,0
2018-02-27T04:44:22.249Z,0
2018-02-27T04:45:02.812Z,0
2018-02-27T04:45:43.363Z,0
2018-02-27T04:46:23.917Z,0
2018-02-27T04:47:04.461Z,0
2018-02-27T04:47:45.016Z,0
2018-02-27T04:48:25.569Z,0
2018-02-27T04:49:06.123Z,0
2018-02-27T04:49:46.722Z,0
2018-02-27T04:50:27.225Z,0
2018-02-27T04:51:07.773Z,0
2018-02-27T04:51:48.324Z,0
2018-02-27T04:52:28.887Z,0
2018-02-27T04:53:09.440Z,0
2018-02-27T04:53:49.980Z,0
2018-02-27T04:54:30.532Z,0
2018-02-27T04:55:11.078Z,0
2018-02-27T04:55:51.687Z,0
2018-02-27T04:56:32.178Z,0
2018-02-27T04:57:12.737Z,0
2018-02-27T04:57:53.284Z,0
2018-02-27T04:58:33.825Z,0
2018-02-27T04:59:14.378Z,0
2018-02-27T04:59:54.931Z,0
2018-02-27T05:00:35.480Z,0
2018-02-27T05:01:16.026Z,0
2018-02-27T05:01:56.581Z,0
2018-02-27T05:02:37.137Z,0
2018-02-27T05:03:17.726Z,0
2018-02-27T05:03:58.275Z,0
2018-02-27T05:04:38.815Z,0
2018-02-27T05:05:19.347Z,0
2018-02-27T05:05:59.882Z,0
2018-02-27T05:06:40.433Z,0
2018-02-27T05:07:20.990Z,0
2018-02-27T05:08:01.543Z,0
2018-02-27T05:08:42.107Z,0
2018-02-27T05:09:22.642Z,0
2018-02-27T05:10:03.189Z,0
2018-02-27T05:10:43.741Z,0
2018-02-27T05:11:24.300Z,0
2018-02-27T05:12:04.909Z,0
2018-02-27T05:12:45.606Z,0
2018-02-27T05:13:26.705Z,0
2018-02-27T05:14:07.296Z,0
2018-02-27T05:14:47.844Z,0
2018-02-27T05:15:28.410Z,0
2018-02-27T05:16:08.963Z,0
2018-02-27T05:16:49.515Z,0
2018-02-27T05:17:30.054Z,0
2018-02-27T05:18:10.631Z,0
2018-02-27T05:18:51.212Z,0
2018-02-27T05:19:31.739Z,0
2018-02-27T05:20:12.291Z,0
2018-02-27T05:20:52.840Z,0
2018-02-27T05:21:33.395Z,0
2018-02-27T05:22:13.943Z,0
2018-02-27T05:22:54.495Z,0
2018-02-27T05:23:35.047Z,0
2018-02-27T05:24:15.597Z,0
2018-02-27T05:24:56.150Z,4
2018-02-27T05:25:36.702Z,4
2018-02-27T05:26:17.263Z,0
2018-02-27T05:26:57.799Z,0
2018-02-27T05:27:38.345Z,0
2018-02-27T05:28:18.898Z,4
2018-02-27T05:28:59.451Z,4
2018-02-27T05:29:39.974Z,4
2018-02-27T05:30:20.526Z,4
2018-02-27T05:31:01.077Z,4
2018-02-27T05:31:41.686Z,4
2018-02-27T05:32:22.215Z,4
2018-02-27T05:33:02.760Z,4
2018-02-27T05:33:43.311Z,8
2018-02-27T05:34:23.862Z,8
2018-02-27T05:35:04.430Z,8
2018-02-27T05:35:44.979Z,12
2018-02-27T05:36:25.490Z,12
2018-02-27T05:37:06.067Z,12
2018-02-27T05:37:46.600Z,16
2018-02-27T05:38:27.145Z,16
2018-02-27T05:39:07.701Z,16
2018-02-27T05:39:48.239Z,16
2018-02-27T05:40:28.796Z,16
2018-02-27T05:41:09.406Z,24
2018-02-27T05:41:50.026Z,24
2018-02-27T05:42:30.511Z,28
2018-02-27T05:43:11.061Z,28
2018-02-27T05:43:51.618Z,32
2018-02-27T05:44:32.161Z,36
2018-02-27T05:45:12.739Z,40
2018-02-27T05:45:53.294Z,44
2018-02-27T05:46:33.852Z,48
2018-02-27T05:47:14.407Z,52
2018-02-27T05:47:54.993Z,56
2018-02-27T05:48:35.552Z,64
2018-02-27T05:49:16.118Z,68
2018-02-27T05:49:56.648Z,76
2018-02-27T05:50:37.198Z,84
2018-02-27T05:51:17.737Z,92
2018-02-27T05:51:58.302Z,96
2018-02-27T05:52:38.845Z,108
2018-02-27T05:53:19.388Z,112
2018-02-27T05:53:59.946Z,124
2018-02-27T05:54:40.474Z,128
2018-02-27T05:55:21.020Z,140
2018-02-27T05:56:01.568Z,148
2018-02-27T05:56:42.128Z,160
2018-02-27T05:57:22.705Z,168
2018-02-27T05:58:03.357Z,184
2018-02-27T05:58:43.913Z,192
2018-02-27T05:59:24.458Z,204
2018-02-27T06:00:05.006Z,216
2018-02-27T06:00:45.570Z,228
2018-02-27T06:03:06.359Z,272
2018-02-27T06:03:46.929Z,288
2018-02-27T06:04:27.449Z,304
2018-02-27T06:05:07.987Z,320
2018-02-27T06:05:48.516Z,336
2018-02-27T06:06:29.059Z,352
2018-02-27T06:07:09.610Z,368
2018-02-27T06:07:50.195Z,384
2018-02-27T06:08:30.700Z,396
2018-02-27T06:09:11.247Z,408
2018-02-27T06:09:51.791Z,424
2018-02-27T06:10:32.339Z,440
2018-02-27T06:11:12.910Z,464
2018-02-27T06:11:53.446Z,488
2018-02-27T06:12:33.974Z,516
2018-02-27T06:13:14.511Z,540
2018-02-27T06:13:55.100Z,568
2018-02-27T06:14:35.631Z,604
2018-02-27T06:15:16.173Z,640
2018-02-27T06:15:56.720Z,676
2018-02-27T06:16:37.265Z,712
2018-02-27T06:17:17.805Z,756
2018-02-27T06:17:58.356Z,792
2018-02-27T06:18:38.897Z,836
2018-02-27T06:19:19.442Z,876
2018-02-27T06:19:59.988Z,916
2018-02-27T06:20:40.575Z,960
2018-02-27T06:21:21.142Z,1004
2018-02-27T06:22:01.714Z,1040
2018-02-27T06:22:42.264Z,1084
2018-02-27T06:23:22.848Z,1116
2018-02-27T06:24:03.419Z,1144
2018-02-27T06:24:43.966Z,1176
2018-02-27T06:25:24.503Z,1196
2018-02-27T06:26:05.079Z,1208
2018-02-27T06:26:45.602Z,1216
2018-02-27T06:27:26.152Z,1224
2018-02-27T06:28:06.738Z,1240
2018-02-27T06:28:47.297Z,1248
2018-02-27T06:29:27.837Z,1260
2018-02-27T06:30:08.388Z,1280
2018-02-27T06:30:48.934Z,1308
2018-02-27T06:31:29.493Z,1344
2018-02-27T06:32:10.043Z,1380
2018-02-27T06:32:50.591Z,1420
2018-02-27T06:33:31.266Z,1460
2018-02-27T06:34:11.867Z,1480
2018-02-27T06:34:52.430Z,1492
2018-02-27T06:35:32.979Z,1516
2018-02-27T06:36:13.523Z,1532
2018-02-27T06:36:54.097Z,1548
2018-02-27T06:37:34.646Z,1572
2018-02-27T06:38:15.186Z,1604
2018-02-27T06:38:55.740Z,1648
2018-02-27T06:39:36.274Z,1696
2018-02-27T06:40:17.624Z,1720
2018-02-27T06:40:58.628Z,1752
2018-02-27T06:41:39.299Z,1788
2018-02-27T06:42:19.898Z,1828
2018-02-27T06:43:00.451Z,1868
2018-02-27T06:43:41.060Z,1904
2018-02-27T06:44:21.686Z,1940
2018-02-27T06:45:02.308Z,1964
2018-02-27T06:45:42.884Z,1972
2018-02-27T06:46:23.407Z,1948
2018-02-27T06:47:04.605Z,1968
2018-02-27T06:47:45.246Z,1972
2018-02-27T06:48:27.149Z,1976
2018-02-27T06:49:07.709Z,2000
2018-02-27T06:49:48.251Z,2048
2018-02-27T06:50:29.437Z,2112
2018-02-27T06:51:10.018Z,2176
2018-02-27T06:51:50.576Z,2244
2018-02-27T06:52:31.134Z,2328
2018-02-27T06:53:11.687Z,2368
2018-02-27T06:53:52.236Z,2388
2018-02-27T06:54:32.809Z,2404
2018-02-27T06:55:13.475Z,2400
2018-02-27T06:55:54.107Z,2388
2018-02-27T06:56:34.644Z,2388
2018-02-27T06:57:15.194Z,2404
2018-02-27T06:57:55.802Z,2404
2018-02-27T06:58:36.320Z,2376
2018-02-27T06:59:16.876Z,2376
2018-02-27T06:59:57.709Z,2384
2018-02-27T07:00:38.249Z,2416
2018-02-27T07:01:18.874Z,2480
2018-02-27T07:01:59.556Z,2560
2018-02-27T07:02:40.109Z,2624
2018-02-27T07:03:20.673Z,2676
2018-02-27T07:04:01.944Z,2688
2018-02-27T07:04:42.509Z,2724
2018-02-27T07:05:23.076Z,2772
2018-02-27T07:06:03.638Z,2828
2018-02-27T07:06:44.188Z,2888
2018-02-27T07:07:24.812Z,2900
2018-02-27T07:08:05.430Z,2892
2018-02-27T07:08:45.993Z,2904
2018-02-27T07:09:26.579Z,2904
2018-02-27T07:10:07.143Z,2924
2018-02-27T07:10:47.673Z,2976
2018-02-27T07:11:28.270Z,3028
2018-02-27T07:12:08.867Z,3088
2018-02-27T07:12:49.576Z,3132
2018-02-27T07:13:30.147Z,3192
2018-02-27T07:14:10.751Z,3292
2018-02-27T07:14:51.486Z,3364
2018-02-27T07:15:32.042Z,3416
2018-02-27T07:16:12.591Z,3440
2018-02-27T07:16:53.141Z,3444
2018-02-27T07:17:33.695Z,3460
2018-02-27T07:18:14.255Z,3484
2018-02-27T07:18:54.804Z,3552
2018-02-27T07:19:35.343Z,3604
2018-02-27T07:20:15.895Z,3684
2018-02-27T07:20:56.442Z,3792
2018-02-27T07:21:37.002Z,3944
2018-02-27T07:22:17.551Z,4080
2018-02-27T07:22:58.098Z,4264
2018-02-27T07:23:38.659Z,4504
2018-02-27T07:24:19.204Z,4672
2018-02-27T07:24:59.753Z,4904
2018-02-27T07:25:40.309Z,5108
2018-02-27T07:26:20.935Z,5272
2018-02-27T07:27:01.511Z,5456
2018-02-27T07:27:42.078Z,5592
2018-02-27T07:28:22.621Z,5772
2018-02-27T07:29:03.171Z,5936
2018-02-27T07:29:43.723Z,6016
2018-02-27T07:30:24.281Z,6100
2018-02-27T07:31:04.856Z,6224
2018-02-27T07:31:45.409Z,6304
2018-02-27T07:32:25.949Z,6456
2018-02-27T07:33:06.499Z,6624
2018-02-27T07:33:47.083Z,6764
2018-02-27T07:34:27.694Z,6856
2018-02-27T07:35:08.225Z,6960
2018-02-27T07:35:48.898Z,7076
2018-02-27T07:36:29.454Z,7332
2018-02-27T07:37:10.068Z,7256
2018-02-27T07:37:50.679Z,7284
2018-02-27T07:38:31.223Z,6992
2018-02-27T07:39:11.792Z,6776
2018-02-27T07:39:52.336Z,6604
2018-02-27T07:40:32.903Z,6604
2018-02-27T07:41:14.452Z,6792
2018-02-27T07:41:55.042Z,6740
2018-02-27T07:42:35.644Z,6744
2018-02-27T07:43:16.284Z,6416
2018-02-27T07:43:56.832Z,5836
2018-02-27T07:44:37.411Z,5668
2018-02-27T07:45:17.948Z,5168
2018-02-27T07:45:58.544Z,5068
2018-02-27T07:46:39.089Z,5320
2018-02-27T07:47:19.674Z,5928
2018-02-27T07:48:00.360Z,6392
2018-02-27T07:48:40.961Z,6900
2018-02-27T07:49:21.535Z,7152
2018-02-27T07:50:02.192Z,6868
2018-02-27T07:50:42.748Z,6196
2018-02-27T07:51:23.327Z,5808
2018-02-27T07:52:03.906Z,5880
2018-02-27T07:52:44.502Z,6672
2018-02-27T07:53:25.141Z,18336
2018-02-27T07:54:05.687Z,42144
2018-02-27T07:54:46.217Z,62624
2018-02-27T07:55:26.773Z,72608
2018-02-27T07:56:07.334Z,75552
2018-02-27T07:56:47.892Z,77376
2018-02-27T07:57:28.442Z,66176
2018-02-27T07:58:09.004Z,75424
2018-02-27T07:58:49.537Z,72000
2018-02-27T07:59:30.083Z,72160
2018-02-27T08:00:10.646Z,63936
2018-02-27T08:00:51.190Z,79968
2018-02-27T08:01:31.769Z,78080
2018-02-27T08:02:12.318Z,78432
2018-02-27T08:02:52.864Z,80000
2018-02-27T08:03:33.412Z,81504
2018-02-27T08:04:14.064Z,83904
2018-02-27T08:04:54.544Z,82464
2018-02-27T08:05:35.171Z,80768
2018-02-27T08:06:15.860Z,77792
2018-02-27T08:06:56.414Z,77088
2018-02-27T08:07:36.964Z,70336
2018-02-27T08:08:17.541Z,73088
2018-02-27T08:08:58.118Z,74592
2018-02-27T08:09:38.674Z,77472
2018-02-27T08:10:19.214Z,79008
2018-02-27T08:10:59.776Z,80384
2018-02-27T08:11:40.333Z,81632
2018-02-27T08:12:20.899Z,81984
2018-02-27T08:13:01.503Z,80672
2018-02-27T08:13:42.073Z,76448
2018-02-27T08:14:22.678Z,74624
2018-02-27T08:15:03.225Z,74528
2018-02-27T08:15:43.817Z,73984
2018-02-27T08:16:24.391Z,74528
2018-02-27T08:17:05.002Z,77760
2018-02-27T08:17:45.561Z,79712
2018-02-27T08:18:26.105Z,76896
2018-02-27T08:19:06.720Z,78368
2018-02-27T08:19:47.217Z,77536
2018-02-27T08:20:27.805Z,70016
2018-02-27T08:21:08.369Z,49312
2018-02-27T08:21:48.948Z,67520
2018-02-27T08:22:29.554Z,40896
2018-02-27T08:23:10.125Z,57632
2018-02-27T08:23:50.694Z,76352
2018-02-27T08:24:31.374Z,79104
2018-02-27T08:25:11.897Z,63872
2018-02-27T08:25:52.456Z,36704
2018-02-27T08:26:33.050Z,39968
2018-02-27T08:27:13.614Z,41984
2018-02-27T08:27:54.207Z,38592
2018-02-27T08:28:34.772Z,41248
2018-02-27T08:29:15.346Z,37536
2018-02-27T08:29:55.912Z,44960
2018-02-27T08:30:36.472Z,36288
2018-02-27T08:31:17.019Z,37632
2018-02-27T08:31:57.584Z,39904
2018-02-27T08:32:38.138Z,39328
2018-02-27T08:33:18.693Z,31872
2018-02-27T08:33:59.247Z,33408
2018-02-27T08:34:39.844Z,38176
2018-02-27T08:35:20.441Z,24000
2018-02-27T08:36:01.020Z,18048
2018-02-27T08:36:41.585Z,15968
2018-02-27T08:37:22.122Z,16064
2018-02-27T08:38:02.690Z,18208
2018-02-27T08:38:43.302Z,16864
2018-02-27T08:39:23.863Z,14032
2018-02-27T08:40:04.412Z,11332
2018-02-27T08:40:45.014Z,10332
2018-02-27T08:41:25.626Z,10116
2018-02-27T08:42:06.188Z,10644
2018-02-27T08:42:46.751Z,10484
2018-02-27T08:43:27.333Z,10372
2018-02-27T08:44:07.889Z,10536
2018-02-27T08:44:48.440Z,11208
2018-02-27T08:45:29.064Z,10712
2018-02-27T08:46:09.604Z,10340
2018-02-27T08:46:50.204Z,10324
2018-02-27T08:47:30.779Z,10312
2018-02-27T08:48:11.356Z,10512
2018-02-27T08:48:51.971Z,10636
2018-02-27T08:49:32.520Z,12116
2018-02-27T08:50:13.081Z,15408
2018-02-27T08:50:53.657Z,21856
2018-02-27T08:51:34.199Z,18336
2018-02-27T08:52:14.754Z,17312
2018-02-27T08:52:55.316Z,20480
2018-02-27T08:53:35.868Z,15968
2018-02-27T08:54:16.425Z,12260
2018-02-27T08:54:56.988Z,16256
2018-02-27T08:55:37.524Z,19520
2018-02-27T08:56:19.114Z,16320
2018-02-27T08:56:59.716Z,14308
2018-02-27T08:57:40.212Z,14104
2018-02-27T08:58:20.803Z,13020
2018-02-27T08:59:01.385Z,11820
2018-02-27T08:59:42.419Z,9668
2018-02-27T09:00:23.384Z,9684
2018-02-27T09:01:03.951Z,10568
2018-02-27T09:01:44.646Z,8864
2018-02-27T09:02:25.165Z,9648
2018-02-27T09:03:05.743Z,10024
2018-02-27T09:03:46.321Z,9832
2018-02-27T09:04:26.844Z,10188
2018-02-27T09:05:07.417Z,10748
2018-02-27T09:05:47.975Z,11488
2018-02-27T09:06:29.431Z,11764
2018-02-27T09:07:09.948Z,11972
2018-02-27T09:07:50.507Z,11752
2018-02-27T09:08:31.322Z,11332
2018-02-27T09:09:11.926Z,11004
2018-02-27T09:09:52.464Z,11172
2018-02-27T09:10:33.014Z,11368
2018-02-27T09:11:13.580Z,11432
2018-02-27T09:11:54.149Z,11340
2018-02-27T09:12:34.713Z,11072
2018-02-27T09:13:15.248Z,11196
2018-02-27T09:13:56.076Z,11052
2018-02-27T09:14:36.638Z,10940
2018-02-27T09:15:17.184Z,10820
2018-02-27T09:15:57.766Z,10620
2018-02-27T09:16:38.307Z,10252
2018-02-27T09:17:18.861Z,10036
2018-02-27T09:18:00.675Z,9672
2018-02-27T09:18:41.251Z,9564
2018-02-27T09:19:21.844Z,9124
2018-02-27T09:20:02.383Z,9156
2018-02-27T09:20:42.911Z,8828
2018-02-27T09:21:23.453Z,8272
2018-02-27T09:22:03.997Z,8220
2018-02-27T09:22:44.585Z,8172
2018-02-27T09:23:25.140Z,7980
2018-02-27T09:24:06.401Z,7724
2018-02-27T09:24:46.942Z,7440
2018-02-27T09:25:27.547Z,7272
2018-02-27T09:26:08.082Z,7312
2018-02-27T09:26:48.705Z,7620
2018-02-27T09:27:29.242Z,7468
2018-02-27T09:28:09.771Z,7364
2018-02-27T09:28:50.347Z,7312
2018-02-27T09:29:30.939Z,7220
2018-02-27T09:30:11.504Z,7152
2018-02-27T09:30:52.063Z,7096
2018-02-27T09:31:32.606Z,7056
2018-02-27T09:32:13.169Z,6956
2018-02-27T09:32:53.748Z,6852
2018-02-27T09:33:34.369Z,6740
2018-02-27T09:34:14.932Z,6620
2018-02-27T09:34:55.564Z,6472